Terminal Aerodrome Forecast
Issued by NWS

Home | Current Version | Previous Version | Text Only | Print | Product List | Glossary Off
Versions: 1 2 3 4 5 6 7 8 9 10 11 12 13 14 15 16 17 18 19 20 21 22 23

779
FTUS43 KABR 120058 AAB
TAFATY
TAF AMD
KATY 120058Z 1201/1224 VRB05KT P6SM OVC015
     FM120300 35009KT P6SM BKN030 OVC050
     FM120900 34010KT P6SM FEW100=

USA.gov is the U.S. government's official web portal to all federal, state and local government web resources and services.